createdAt,value
2014-07-29T00:00:04.679Z,99182
2014-07-29T00:00:22.929Z,99184
2014-07-29T00:00:41.148Z,99179
2014-07-29T00:00:59.415Z,99190
2014-07-29T00:01:17.634Z,99190
2014-07-29T00:01:50.009Z,99184
2014-07-29T00:02:08.277Z,99187
2014-07-29T00:02:26.495Z,99190
2014-07-29T00:02:44.730Z,99187
2014-07-29T00:03:02.948Z,99184
2014-07-29T00:03:21.200Z,99187
2014-07-29T00:03:39.419Z,99187
2014-07-29T00:03:57.654Z,99179
2014-07-29T00:04:15.875Z,99184
2014-07-29T00:04:34.078Z,99184
2014-07-29T00:04:52.344Z,99187
2014-07-29T00:05:10.547Z,99184
2014-07-29T00:05:28.798Z,99184
2014-07-29T00:05:47.033Z,99182
2014-07-29T00:06:05.251Z,99184
2014-07-29T00:06:23.472Z,99187
2014-07-29T00:06:41.706Z,99184
2014-07-29T00:06:59.910Z,99176
2014-07-29T00:07:18.144Z,99176
2014-07-29T00:07:36.381Z,99176
2014-07-29T00:07:54.616Z,99170
2014-07-29T00:08:12.834Z,99176
2014-07-29T00:08:31.054Z,99176
2014-07-29T00:08:49.273Z,99176
2014-07-29T00:09:07.492Z,99170
2014-07-29T00:09:40.635Z,99170
2014-07-29T00:09:58.885Z,99167
2014-07-29T00:10:17.088Z,99173
2014-07-29T00:10:35.356Z,99170
2014-07-29T00:10:53.559Z,99173
2014-07-29T00:11:11.809Z,99170
2014-07-29T00:11:30.028Z,99176
2014-07-29T00:11:48.264Z,99184
2014-07-29T00:12:06.499Z,99179
2014-07-29T00:12:24.749Z,99176
2014-07-29T00:12:42.969Z,99176
2014-07-29T00:13:01.344Z,99173
2014-07-29T00:13:19.673Z,99170
2014-07-29T00:13:37.924Z,99173
2014-07-29T00:13:56.142Z,99176
2014-07-29T00:14:14.377Z,99179
2014-07-29T00:14:32.595Z,99176
2014-07-29T00:15:05.114Z,99176
2014-07-29T00:15:23.348Z,99179
2014-07-29T00:15:41.585Z,99173
2014-07-29T00:15:59.819Z,99170
2014-07-29T00:16:18.038Z,99176
2014-07-29T00:16:36.257Z,99170
2014-07-29T00:16:54.461Z,99161
2014-07-29T00:17:12.695Z,99170
2014-07-29T00:17:30.945Z,99164
2014-07-29T00:17:49.151Z,99164
2014-07-29T00:18:07.401Z,99158
2014-07-29T00:18:25.604Z,99164
2014-07-29T00:18:43.839Z,99161
2014-07-29T00:19:02.090Z,99155
2014-07-29T00:19:20.277Z,99164
2014-07-29T00:19:38.512Z,99158
2014-07-29T00:19:56.749Z,99158
2014-07-29T00:20:14.952Z,99152
2014-07-29T00:20:33.187Z,99161
2014-07-29T00:20:51.437Z,99155
2014-07-29T00:21:09.656Z,99147
2014-07-29T00:21:27.859Z,99170
2014-07-29T00:21:46.109Z,99161
2014-07-29T00:22:04.315Z,99155
2014-07-29T00:22:22.533Z,99170
2014-07-29T00:22:40.908Z,99173
2014-07-29T00:22:59.127Z,99158
2014-07-29T00:23:17.348Z,99161
2014-07-29T00:23:35.551Z,99167
2014-07-29T00:23:53.785Z,99173
2014-07-29T00:24:12.037Z,99173
2014-07-29T00:24:44.553Z,99158
2014-07-29T00:25:02.803Z,99164
2014-07-29T00:25:21.040Z,99173
2014-07-29T00:25:39.228Z,99173
2014-07-29T00:25:57.462Z,99161
2014-07-29T00:26:15.806Z,99167
2014-07-29T00:26:34.027Z,99170
2014-07-29T00:26:52.277Z,99161
2014-07-29T00:27:10.464Z,99173
2014-07-29T00:27:28.732Z,99158
2014-07-29T00:27:46.966Z,99176
2014-07-29T00:28:05.169Z,99164
2014-07-29T00:28:23.388Z,99161
2014-07-29T00:28:41.640Z,99164
2014-07-29T00:28:59.874Z,99167
2014-07-29T00:29:18.093Z,99158
2014-07-29T00:29:36.345Z,99158
2014-07-29T00:29:54.564Z,99164
2014-07-29T00:30:12.814Z,99164
2014-07-29T00:30:31.001Z,99167
2014-07-29T00:30:49.238Z,99158
2014-07-29T00:31:07.472Z,99161
2014-07-29T00:31:25.707Z,99161
2014-07-29T00:31:43.959Z,99158
2014-07-29T00:32:02.146Z,99161
2014-07-29T00:32:20.396Z,99164
2014-07-29T00:32:38.601Z,99164
2014-07-29T00:32:56.836Z,99167
2014-07-29T00:33:29.351Z,99161
2014-07-29T00:33:47.556Z,99158
2014-07-29T00:34:05.775Z,99155
2014-07-29T00:34:23.994Z,99149
2014-07-29T00:34:42.229Z,99158
2014-07-29T00:35:00.448Z,99158
2014-07-29T00:35:18.667Z,99155
2014-07-29T00:35:36.934Z,99158
2014-07-29T00:35:55.137Z,99147
2014-07-29T00:36:13.356Z,99155
2014-07-29T00:36:31.606Z,99158
2014-07-29T00:36:49.843Z,99152
2014-07-29T00:37:08.061Z,99152
2014-07-29T00:37:26.280Z,99164
2014-07-29T00:37:44.517Z,99152
2014-07-29T00:38:02.752Z,99155
2014-07-29T00:38:20.955Z,99147
2014-07-29T00:38:39.238Z,99155
2014-07-29T00:38:57.473Z,99147
2014-07-29T00:39:15.957Z,99147
2014-07-29T00:39:34.160Z,99152
2014-07-29T00:39:52.381Z,99161
2014-07-29T00:40:10.615Z,99145
2014-07-29T00:40:28.834Z,99149
2014-07-29T00:40:47.069Z,99155
2014-07-29T00:41:05.304Z,99155
2014-07-29T00:41:23.522Z,99149
2014-07-29T00:41:41.741Z,99149
2014-07-29T00:41:59.962Z,99139
2014-07-29T00:42:18.196Z,99155
2014-07-29T00:42:36.431Z,99152
2014-07-29T00:42:54.652Z,99149
2014-07-29T00:43:13.059Z,99158
2014-07-29T00:43:31.262Z,99155
2014-07-29T00:43:49.465Z,99158
2014-07-29T00:44:07.700Z,99152
2014-07-29T00:44:25.966Z,99152
2014-07-29T00:44:44.169Z,99147
2014-07-29T00:45:02.406Z,99155
2014-07-29T00:45:20.610Z,99161
2014-07-29T00:45:38.860Z,99147
2014-07-29T00:45:57.063Z,99155
2014-07-29T00:46:15.282Z,99152
2014-07-29T00:46:33.642Z,99147
2014-07-29T00:46:51.876Z,99149
2014-07-29T00:47:10.114Z,99149
2014-07-29T00:47:28.317Z,99142
2014-07-29T00:47:46.567Z,99142
2014-07-29T00:48:04.973Z,99150
2014-07-29T00:48:23.209Z,99150
2014-07-29T00:48:41.412Z,99152
2014-07-29T00:48:59.647Z,99142
2014-07-29T00:49:17.914Z,99147
2014-07-29T00:49:36.133Z,99139
2014-07-29T00:49:54.368Z,99142
2014-07-29T00:50:12.602Z,99147
2014-07-29T00:50:30.823Z,99145
2014-07-29T00:50:49.057Z,99142
2014-07-29T00:51:07.260Z,99142
2014-07-29T00:51:25.497Z,99142
2014-07-29T00:51:43.762Z,99145
2014-07-29T00:52:01.981Z,99147
2014-07-29T00:52:20.184Z,99136
2014-07-29T00:52:38.420Z,99142
2014-07-29T00:52:56.670Z,99147
2014-07-29T00:53:29.016Z,99150
2014-07-29T00:53:47.266Z,99139
2014-07-29T00:54:05.469Z,99150
2014-07-29T00:54:23.688Z,99145
2014-07-29T00:54:41.924Z,99145
2014-07-29T00:55:00.143Z,99150
2014-07-29T00:55:18.393Z,99142
2014-07-29T00:55:36.598Z,99147
2014-07-29T00:55:54.833Z,99142
2014-07-29T00:56:13.083Z,99152
2014-07-29T00:56:31.286Z,99147
2014-07-29T00:56:49.538Z,99147
2014-07-29T00:57:07.788Z,99142
2014-07-29T00:57:26.022Z,99139
2014-07-29T00:57:44.259Z,99142
2014-07-29T00:58:02.587Z,99139
2014-07-29T00:58:20.821Z,99136
2014-07-29T00:58:39.042Z,99147
2014-07-29T00:58:57.276Z,99133
2014-07-29T00:59:15.511Z,99130
2014-07-29T00:59:33.716Z,99133
2014-07-29T00:59:51.966Z,99136
2014-07-29T01:00:10.184Z,99136
2014-07-29T01:00:28.575Z,99139
2014-07-29T01:00:46.796Z,99145
2014-07-29T01:01:04.999Z,99130
2014-07-29T01:01:23.249Z,99136
2014-07-29T01:01:41.454Z,99136
2014-07-29T01:01:59.688Z,99130
2014-07-29T01:02:17.907Z,99133
2014-07-29T01:02:36.158Z,99139
2014-07-29T01:02:54.377Z,99130
2014-07-29T01:03:12.580Z,99130
2014-07-29T01:03:30.799Z,99127
2014-07-29T01:03:49.051Z,99130
2014-07-29T01:04:07.270Z,99127
2014-07-29T01:04:25.473Z,99133
2014-07-29T01:04:43.694Z,99124
2014-07-29T01:05:01.944Z,99124
2014-07-29T01:05:20.163Z,99118
2014-07-29T01:05:38.398Z,99130
2014-07-29T01:05:56.618Z,99124
2014-07-29T01:06:14.837Z,99130
2014-07-29T01:06:33.071Z,99124
2014-07-29T01:06:51.276Z,99136
2014-07-29T01:07:09.510Z,99136
2014-07-29T01:07:27.916Z,99130
2014-07-29T01:07:46.151Z,99124
2014-07-29T01:08:04.341Z,99127
2014-07-29T01:08:22.575Z,99127
2014-07-29T01:08:40.810Z,99130
2014-07-29T01:08:59.062Z,99130
2014-07-29T01:09:17.265Z,99127
2014-07-29T01:09:35.515Z,99142
2014-07-29T01:09:53.749Z,99139
2014-07-29T01:10:11.954Z,99139
2014-07-29T01:10:30.189Z,99130
2014-07-29T01:10:48.423Z,99136
2014-07-29T01:11:06.674Z,99142
2014-07-29T01:11:24.909Z,99139
2014-07-29T01:11:43.112Z,99130
2014-07-29T01:12:01.330Z,99136
2014-07-29T01:12:19.568Z,99139
2014-07-29T01:12:37.802Z,99139
2014-07-29T01:12:56.005Z,99139
2014-07-29T01:13:14.242Z,99136
2014-07-29T01:13:32.460Z,99133
2014-07-29T01:13:50.679Z,99127
2014-07-29T01:14:08.945Z,99133
2014-07-29T01:14:27.134Z,99142
2014-07-29T01:14:45.384Z,99133
2014-07-29T01:15:03.603Z,99121
2014-07-29T01:15:21.793Z,99130
2014-07-29T01:15:40.043Z,99127
2014-07-29T01:15:58.293Z,99133
2014-07-29T01:16:16.511Z,99124
2014-07-29T01:16:34.732Z,99139
2014-07-29T01:16:52.966Z,99122
2014-07-29T01:17:11.201Z,99124
2014-07-29T01:17:29.437Z,99133
2014-07-29T01:17:47.672Z,99130
2014-07-29T01:18:05.859Z,99127
2014-07-29T01:18:24.140Z,99121
2014-07-29T01:18:42.361Z,99124
2014-07-29T01:19:00.595Z,99127
2014-07-29T01:19:18.799Z,99116
2014-07-29T01:19:37.036Z,99116
2014-07-29T01:19:55.286Z,99133
2014-07-29T01:20:13.489Z,99127
2014-07-29T01:20:31.739Z,99127
2014-07-29T01:20:49.959Z,99127
2014-07-29T01:21:08.209Z,99116
2014-07-29T01:21:26.396Z,99121
2014-07-29T01:21:44.648Z,99121
2014-07-29T01:22:02.883Z,99121
2014-07-29T01:22:21.101Z,99133
2014-07-29T01:22:39.336Z,99121
2014-07-29T01:22:57.557Z,99121
2014-07-29T01:23:15.775Z,99116
2014-07-29T01:23:34.010Z,99127
2014-07-29T01:23:52.231Z,99121
2014-07-29T01:24:10.622Z,99121
2014-07-29T01:24:28.856Z,99124
2014-07-29T01:24:47.060Z,99121
2014-07-29T01:25:05.390Z,99130
2014-07-29T01:25:23.624Z,99119
2014-07-29T01:25:42.015Z,99121
2014-07-29T01:26:00.266Z,99113
2014-07-29T01:26:18.469Z,99121
2014-07-29T01:26:36.719Z,99124
2014-07-29T01:26:54.953Z,99127
2014-07-29T01:27:13.159Z,99119
2014-07-29T01:27:31.394Z,99121
2014-07-29T01:27:49.612Z,99119
2014-07-29T01:28:07.848Z,99127
2014-07-29T01:28:26.082Z,99121
2014-07-29T01:28:44.285Z,99110
2014-07-29T01:29:02.520Z,99101
2014-07-29T01:29:20.740Z,99119
2014-07-29T01:29:38.944Z,99110
2014-07-29T01:29:57.178Z,99113
2014-07-29T01:30:15.431Z,99095
2014-07-29T01:30:33.665Z,99110
2014-07-29T01:30:51.900Z,99104
2014-07-29T01:31:10.134Z,99110
2014-07-29T01:31:28.338Z,99116
2014-07-29T01:31:46.557Z,99098
2014-07-29T01:32:04.807Z,99104
2014-07-29T01:32:23.029Z,99110
2014-07-29T01:32:41.279Z,99101
2014-07-29T01:32:59.466Z,99110
2014-07-29T01:33:17.685Z,99116
2014-07-29T01:33:35.952Z,99121
2014-07-29T01:33:54.155Z,99116
2014-07-29T01:34:12.373Z,99121
2014-07-29T01:34:30.704Z,99110
2014-07-29T01:34:48.922Z,99110
2014-07-29T01:35:07.204Z,99110
2014-07-29T01:35:25.422Z,99116
2014-07-29T01:35:43.660Z,99113
2014-07-29T01:36:01.847Z,99119
2014-07-29T01:36:20.082Z,99116
2014-07-29T01:36:38.301Z,99116
2014-07-29T01:36:56.676Z,99110
2014-07-29T01:37:14.942Z,99113
2014-07-29T01:37:33.163Z,99122
2014-07-29T01:37:51.381Z,99116
2014-07-29T01:38:09.585Z,99116
2014-07-29T01:38:27.850Z,99122
2014-07-29T01:38:46.055Z,99124
2014-07-29T01:39:04.258Z,99119
2014-07-29T01:39:36.667Z,99113
2014-07-29T01:39:54.885Z,99124
2014-07-29T01:40:13.135Z,99116
2014-07-29T01:40:31.370Z,99113
2014-07-29T01:40:49.591Z,99119
2014-07-29T01:41:07.809Z,99107
2014-07-29T01:41:26.028Z,99113
2014-07-29T01:41:44.280Z,99116
2014-07-29T01:42:17.405Z,99113
2014-07-29T01:42:35.658Z,99113
2014-07-29T01:42:53.861Z,99107
2014-07-29T01:43:12.283Z,99110
2014-07-29T01:43:30.517Z,99101
2014-07-29T01:43:48.753Z,99110
2014-07-29T01:44:07.112Z,99116
2014-07-29T01:44:25.331Z,99110
2014-07-29T01:44:43.567Z,99110
2014-07-29T01:45:01.770Z,99113
2014-07-29T01:45:20.083Z,99110
2014-07-29T01:45:38.411Z,99104
2014-07-29T01:45:56.632Z,99113
2014-07-29T01:46:14.851Z,99101
2014-07-29T01:46:33.054Z,99113
2014-07-29T01:46:51.321Z,99101
2014-07-29T01:47:09.540Z,99101
2014-07-29T01:47:27.743Z,99107
2014-07-29T01:47:45.962Z,99119
2014-07-29T01:48:04.214Z,99110
2014-07-29T01:48:22.433Z,99113
2014-07-29T01:48:40.651Z,99116
2014-07-29T01:48:58.873Z,99119
2014-07-29T01:49:17.123Z,99113
2014-07-29T01:49:35.342Z,99104
2014-07-29T01:49:53.576Z,99113
2014-07-29T01:50:11.780Z,99113
2014-07-29T01:50:30.030Z,99104
2014-07-29T01:50:48.249Z,99098
2014-07-29T01:51:06.455Z,99113
2014-07-29T01:51:24.721Z,99113
2014-07-29T01:51:42.955Z,99101
2014-07-29T01:52:01.190Z,99107
2014-07-29T01:52:19.379Z,99107
2014-07-29T01:52:37.629Z,99110
2014-07-29T01:52:55.864Z,99104
2014-07-29T01:53:14.100Z,99116
2014-07-29T01:53:32.319Z,99107
2014-07-29T01:53:50.537Z,99107
2014-07-29T01:54:08.787Z,99113
2014-07-29T01:54:27.008Z,99110
2014-07-29T01:54:45.211Z,99107
2014-07-29T01:55:03.414Z,99104
2014-07-29T01:55:21.666Z,99104
2014-07-29T01:55:39.885Z,99113
2014-07-29T01:55:58.088Z,99110
2014-07-29T01:56:16.323Z,99113
2014-07-29T01:56:34.575Z,99122
2014-07-29T01:56:52.778Z,99110
2014-07-29T01:57:11.012Z,99107
2014-07-29T01:57:29.249Z,99110
2014-07-29T01:57:47.483Z,99110
2014-07-29T01:58:05.686Z,99110
2014-07-29T01:58:23.889Z,99104
2014-07-29T01:58:42.109Z,99113
2014-07-29T01:59:00.359Z,99110
2014-07-29T01:59:18.562Z,99113
2014-07-29T01:59:36.815Z,99113
2014-07-29T01:59:55.034Z,99104
2014-07-29T02:00:13.237Z,99107
2014-07-29T02:00:31.471Z,99104
2014-07-29T02:00:49.707Z,99113
2014-07-29T02:01:07.957Z,99113
2014-07-29T02:01:26.175Z,99104
2014-07-29T02:01:44.381Z,99101
2014-07-29T02:02:02.631Z,99104
2014-07-29T02:02:20.834Z,99101
2014-07-29T02:02:39.054Z,99104
2014-07-29T02:02:57.289Z,99113
2014-07-29T02:03:15.539Z,99107
2014-07-29T02:03:33.760Z,99113
2014-07-29T02:03:51.963Z,99110
2014-07-29T02:04:10.181Z,99101
2014-07-29T02:04:28.416Z,99101
2014-07-29T02:04:46.652Z,99110
2014-07-29T02:05:04.855Z,99101
2014-07-29T02:05:23.058Z,99110
2014-07-29T02:05:41.310Z,99113
2014-07-29T02:05:59.545Z,99122
2014-07-29T02:06:17.779Z,99098
2014-07-29T02:06:35.982Z,99107
2014-07-29T02:06:54.220Z,99101
2014-07-29T02:07:12.407Z,99116
2014-07-29T02:07:30.642Z,99110
2014-07-29T02:07:48.862Z,99119
2014-07-29T02:08:07.112Z,99122
2014-07-29T02:08:25.347Z,99110
2014-07-29T02:08:43.534Z,99110
2014-07-29T02:09:01.770Z,99113
2014-07-29T02:09:20.020Z,99107
2014-07-29T02:09:38.207Z,99113
2014-07-29T02:09:56.444Z,99113
2014-07-29T02:10:14.679Z,99110
2014-07-29T02:10:32.898Z,99104
2014-07-29T02:10:51.132Z,99116
2014-07-29T02:11:09.368Z,99122
2014-07-29T02:11:27.571Z,99110
2014-07-29T02:11:45.806Z,99107
2014-07-29T02:12:04.026Z,99110
2014-07-29T02:12:22.244Z,99119
2014-07-29T02:12:40.479Z,99119
2014-07-29T02:12:58.729Z,99113
2014-07-29T02:13:16.966Z,99110
2014-07-29T02:13:35.185Z,99104
2014-07-29T02:13:53.435Z,99116
2014-07-29T02:14:11.650Z,99110
2014-07-29T02:14:29.884Z,99107
2014-07-29T02:14:48.103Z,99110
2014-07-29T02:15:06.337Z,99122
2014-07-29T02:15:24.597Z,99116
2014-07-29T02:15:42.800Z,99110
2014-07-29T02:16:01.050Z,99116
2014-07-29T02:16:19.283Z,99116
2014-07-29T02:16:37.533Z,99116
2014-07-29T02:16:55.752Z,99119
2014-07-29T02:17:13.955Z,99104
2014-07-29T02:17:32.246Z,99113
2014-07-29T02:17:50.480Z,99110
2014-07-29T02:18:08.683Z,99107
2014-07-29T02:18:26.977Z,99107
2014-07-29T02:18:45.196Z,99110
2014-07-29T02:19:03.399Z,99122
2014-07-29T02:19:21.618Z,99116
2014-07-29T02:19:39.881Z,99104
2014-07-29T02:19:58.116Z,99110
2014-07-29T02:20:16.350Z,99104
2014-07-29T02:20:34.586Z,99101
2014-07-29T02:20:52.804Z,99113
2014-07-29T02:21:11.039Z,99113
2014-07-29T02:21:29.242Z,99107
2014-07-29T02:21:47.508Z,99098
2014-07-29T02:22:05.742Z,99110
2014-07-29T02:22:23.961Z,99107
2014-07-29T02:22:42.195Z,99113
2014-07-29T02:23:00.460Z,99113
2014-07-29T02:23:18.679Z,99116
2014-07-29T02:23:36.883Z,99119
2014-07-29T02:23:55.133Z,99122
2014-07-29T02:24:13.351Z,99119
2014-07-29T02:24:31.570Z,99122
2014-07-29T02:24:49.815Z,99110
2014-07-29T02:25:08.049Z,99127
2014-07-29T02:25:26.268Z,99113
2014-07-29T02:25:44.478Z,99119
2014-07-29T02:26:02.697Z,99125
2014-07-29T02:26:20.947Z,99122
2014-07-29T02:26:39.188Z,99125
2014-07-29T02:26:57.407Z,99113
2014-07-29T02:27:15.625Z,99125
2014-07-29T02:27:33.867Z,99125
2014-07-29T02:27:52.101Z,99125
2014-07-29T02:28:10.304Z,99125
2014-07-29T02:28:28.523Z,99122
2014-07-29T02:28:46.764Z,99116
2014-07-29T02:29:19.155Z,99113
2014-07-29T02:29:37.378Z,99128
2014-07-29T02:29:55.581Z,99125
2014-07-29T02:30:27.987Z,99122
2014-07-29T02:30:46.210Z,99116
2014-07-29T02:31:04.444Z,99119
2014-07-29T02:31:22.679Z,99119
2014-07-29T02:31:40.917Z,99122
2014-07-29T02:31:59.151Z,99125
2014-07-29T02:32:17.355Z,99122
2014-07-29T02:32:35.593Z,99130
2014-07-29T02:32:53.827Z,99116
2014-07-29T02:33:12.046Z,99116
2014-07-29T02:33:30.249Z,99122
2014-07-29T02:33:48.488Z,99110
2014-07-29T02:34:06.753Z,99119
2014-07-29T02:34:24.972Z,99116
2014-07-29T02:34:43.194Z,99116
2014-07-29T02:35:15.553Z,99119
2014-07-29T02:36:06.181Z,99119
2014-07-29T02:36:24.369Z,99116
2014-07-29T02:36:42.605Z,99113
2014-07-29T02:37:00.824Z,99116
2014-07-29T02:37:19.042Z,99110
2014-07-29T02:37:37.296Z,99116
2014-07-29T02:37:55.515Z,99116
2014-07-29T02:38:13.750Z,99110
2014-07-29T02:38:31.953Z,99122
2014-07-29T02:38:50.173Z,99119
2014-07-29T02:39:08.408Z,99127
2014-07-29T02:39:26.627Z,99130
2014-07-29T02:39:44.864Z,99125
2014-07-29T02:40:03.067Z,99119
2014-07-29T02:40:21.333Z,99125
2014-07-29T02:40:39.552Z,99119
2014-07-29T02:41:12.677Z,99125
2014-07-29T02:41:31.006Z,99125
2014-07-29T02:41:49.211Z,99122
2014-07-29T02:42:07.476Z,99119
2014-07-29T02:42:25.664Z,99119
2014-07-29T02:42:43.885Z,99119
2014-07-29T02:43:02.135Z,99125
2014-07-29T02:43:20.353Z,99128
2014-07-29T02:43:38.558Z,99122
2014-07-29T02:43:56.777Z,99122
2014-07-29T02:44:15.027Z,99113
2014-07-29T02:44:33.262Z,99113
2014-07-29T02:44:51.467Z,99116
2014-07-29T02:45:09.685Z,99116
2014-07-29T02:45:27.904Z,99116
2014-07-29T02:45:46.156Z,99116
2014-07-29T02:46:04.359Z,99122
2014-07-29T02:46:22.609Z,99119
2014-07-29T02:46:40.922Z,99107
2014-07-29T02:46:59.236Z,99119
2014-07-29T02:47:17.471Z,99125
2014-07-29T02:47:35.705Z,99116
2014-07-29T02:47:54.004Z,99116
2014-07-29T02:48:44.629Z,99119
2014-07-29T02:49:02.865Z,99113
2014-07-29T02:49:21.100Z,99116
2014-07-29T02:49:39.303Z,99104
2014-07-29T02:49:57.537Z,99116
2014-07-29T02:50:15.774Z,99110
2014-07-29T02:50:34.024Z,99119
2014-07-29T02:50:52.242Z,99113
2014-07-29T02:51:24.620Z,99119
2014-07-29T02:51:42.839Z,99113
2014-07-29T02:52:01.183Z,99113
2014-07-29T02:52:19.402Z,99110
2014-07-29T02:52:37.622Z,99110
2014-07-29T02:52:55.841Z,99122
2014-07-29T02:53:14.091Z,99119
2014-07-29T02:53:32.312Z,99113
2014-07-29T02:53:50.531Z,99107
2014-07-29T02:54:08.749Z,99107
2014-07-29T02:54:26.984Z,99113
2014-07-29T02:54:45.189Z,99107
2014-07-29T02:55:03.408Z,99119
2014-07-29T02:55:21.626Z,99116
2014-07-29T02:55:39.878Z,99113
2014-07-29T02:55:58.113Z,99113
2014-07-29T02:56:16.300Z,99110
2014-07-29T02:56:34.521Z,99119
2014-07-29T02:56:52.771Z,99113
2014-07-29T02:57:10.990Z,99113
2014-07-29T02:57:29.193Z,99113
2014-07-29T02:57:47.414Z,99113
2014-07-29T02:58:05.664Z,99107
2014-07-29T02:58:23.898Z,99116
2014-07-29T02:58:42.134Z,99107
2014-07-29T02:59:00.353Z,99107
2014-07-29T02:59:18.572Z,99119
2014-07-29T02:59:36.791Z,99107
2014-07-29T02:59:55.010Z,99110
2014-07-29T03:00:13.229Z,99104
2014-07-29T03:00:31.463Z,99104
2014-07-29T03:00:49.685Z,99099
2014-07-29T03:01:07.904Z,99116
2014-07-29T03:01:26.123Z,99104
2014-07-29T03:01:44.357Z,99110
2014-07-29T03:02:02.593Z,99104
2014-07-29T03:02:20.812Z,99101
2014-07-29T03:02:39.047Z,99096
2014-07-29T03:02:57.283Z,99104
2014-07-29T03:03:15.502Z,99104
2014-07-29T03:03:33.705Z,99104
2014-07-29T03:03:51.924Z,99110
2014-07-29T03:04:10.176Z,99110
2014-07-29T03:04:28.410Z,99110
2014-07-29T03:04:46.629Z,99110
2014-07-29T03:05:04.849Z,99104
2014-07-29T03:05:23.053Z,99110
2014-07-29T03:05:41.271Z,99113
2014-07-29T03:05:59.506Z,99104
2014-07-29T03:06:17.726Z,99110
2014-07-29T03:06:35.976Z,99104
2014-07-29T03:06:54.195Z,99099
2014-07-29T03:07:12.417Z,99110
2014-07-29T03:07:30.620Z,99116
2014-07-29T03:07:48.886Z,99101
2014-07-29T03:08:07.104Z,99107
2014-07-29T03:08:25.310Z,99099
2014-07-29T03:08:43.575Z,99101
2014-07-29T03:09:01.778Z,99110
2014-07-29T03:09:20.015Z,99110
2014-07-29T03:09:38.265Z,99107
2014-07-29T03:09:56.483Z,99107
2014-07-29T03:10:14.702Z,99113
2014-07-29T03:10:32.922Z,99093
2014-07-29T03:10:51.141Z,99101
2014-07-29T03:11:09.391Z,99107
2014-07-29T03:11:27.611Z,99110
2014-07-29T03:11:45.846Z,99110
2014-07-29T03:12:04.065Z,99104
2014-07-29T03:12:22.268Z,99110
2014-07-29T03:12:40.488Z,99107
2014-07-29T03:12:58.723Z,99110
2014-07-29T03:13:16.973Z,99113
2014-07-29T03:13:35.194Z,99101
2014-07-29T03:13:53.428Z,99101
2014-07-29T03:14:11.631Z,99116
2014-07-29T03:14:29.881Z,99107
2014-07-29T03:14:48.118Z,99116
2014-07-29T03:15:06.306Z,99104
2014-07-29T03:15:24.525Z,99104
2014-07-29T03:15:42.761Z,99116
2014-07-29T03:16:00.995Z,99101
2014-07-29T03:16:19.183Z,99107
2014-07-29T03:16:37.435Z,99107
2014-07-29T03:16:55.654Z,99116
2014-07-29T03:17:13.872Z,99101
2014-07-29T03:17:32.076Z,99107
2014-07-29T03:17:50.311Z,99110
2014-07-29T03:18:08.561Z,99101
2014-07-29T03:18:26.795Z,99101
2014-07-29T03:18:45.000Z,99101
2014-07-29T03:19:03.219Z,99107
2014-07-29T03:19:21.454Z,99096
2014-07-29T03:19:39.690Z,99093
2014-07-29T03:19:57.893Z,99096
2014-07-29T03:20:16.112Z,99099
2014-07-29T03:20:34.331Z,99096
2014-07-29T03:20:52.583Z,99099
2014-07-29T03:21:24.973Z,99099
2014-07-29T03:21:43.178Z,99104
2014-07-29T03:22:01.397Z,99096
2014-07-29T03:22:19.631Z,99099
2014-07-29T03:22:37.850Z,99087
2014-07-29T03:22:56.087Z,99101
2014-07-29T03:23:14.290Z,99099
2014-07-29T03:23:32.524Z,99101
2014-07-29T03:23:50.745Z,99093
2014-07-29T03:24:08.964Z,99099
2014-07-29T03:24:27.214Z,99099
2014-07-29T03:24:45.448Z,99099
2014-07-29T03:25:03.669Z,99104
2014-07-29T03:25:36.044Z,99096
2014-07-29T03:25:54.264Z,99096
2014-07-29T03:26:12.468Z,99101
2014-07-29T03:26:30.718Z,99104
2014-07-29T03:26:48.936Z,99099
2014-07-29T03:27:07.157Z,99101
2014-07-29T03:27:25.360Z,99093
2014-07-29T03:27:43.626Z,99099
2014-07-29T03:28:01.831Z,99087
2014-07-29T03:28:20.050Z,99104
2014-07-29T03:28:38.268Z,99093
2014-07-29T03:28:56.503Z,99099
2014-07-29T03:29:14.739Z,99084
2014-07-29T03:29:32.942Z,99090
2014-07-29T03:29:51.145Z,99099
2014-07-29T03:30:09.413Z,99090
2014-07-29T03:30:27.632Z,99096
2014-07-29T03:30:45.851Z,99096
2014-07-29T03:31:04.069Z,99090
2014-07-29T03:31:22.322Z,99107
2014-07-29T03:31:40.541Z,99099
2014-07-29T03:31:58.760Z,99104
2014-07-29T03:32:16.995Z,99099
2014-07-29T03:32:49.401Z,99093
2014-07-29T03:33:07.636Z,99099
2014-07-29T03:33:25.858Z,99110
2014-07-29T03:33:44.076Z,99102
2014-07-29T03:34:02.311Z,99099
2014-07-29T03:34:20.529Z,99090
2014-07-29T03:34:38.734Z,99102
2014-07-29T03:34:56.984Z,99093
2014-07-29T03:35:15.187Z,99099
2014-07-29T03:35:33.424Z,99087
2014-07-29T03:35:51.627Z,99093
2014-07-29T03:36:09.877Z,99099
2014-07-29T03:36:28.080Z,99093
2014-07-29T03:36:46.348Z,99096
2014-07-29T03:37:04.551Z,99093
2014-07-29T03:37:22.785Z,99087
2014-07-29T03:37:41.005Z,99087
2014-07-29T03:37:59.224Z,99087
2014-07-29T03:38:17.427Z,99087
2014-07-29T03:38:35.648Z,99084
2014-07-29T03:38:53.867Z,99087
2014-07-29T03:39:12.132Z,99087
2014-07-29T03:39:30.351Z,99087
2014-07-29T03:39:48.572Z,99093
2014-07-29T03:40:06.822Z,99087
2014-07-29T03:40:25.040Z,99084
2014-07-29T03:40:43.230Z,99084
2014-07-29T03:41:01.542Z,99093
2014-07-29T03:41:19.808Z,99087
2014-07-29T03:41:38.013Z,99087
2014-07-29T03:41:56.248Z,99087
2014-07-29T03:42:14.482Z,99090
2014-07-29T03:42:32.701Z,99090
2014-07-29T03:42:50.937Z,99087
2014-07-29T03:43:09.140Z,99084
2014-07-29T03:43:27.359Z,99093
2014-07-29T03:43:45.595Z,99078
2014-07-29T03:44:03.830Z,99078
2014-07-29T03:44:22.064Z,99084
2014-07-29T03:44:40.283Z,99081
2014-07-29T03:44:58.519Z,99087
2014-07-29T03:45:16.722Z,99078
2014-07-29T03:45:34.972Z,99084
2014-07-29T03:45:53.178Z,99090
2014-07-29T03:46:11.428Z,99099
2014-07-29T03:46:29.632Z,99084
2014-07-29T03:46:47.866Z,99093
2014-07-29T03:47:06.226Z,99081
2014-07-29T03:47:24.476Z,99087
2014-07-29T03:47:42.695Z,99093
2014-07-29T03:48:00.885Z,99090
2014-07-29T03:48:19.306Z,99096
2014-07-29T03:48:37.556Z,99096
2014-07-29T03:48:55.760Z,99090
2014-07-29T03:49:13.997Z,99093
2014-07-29T03:49:32.216Z,99096
2014-07-29T03:49:50.466Z,99084
2014-07-29T03:50:08.654Z,99093
2014-07-29T03:50:26.889Z,99090
2014-07-29T03:50:45.123Z,99096
2014-07-29T03:51:03.357Z,99093
2014-07-29T03:51:21.563Z,99087
2014-07-29T03:51:39.813Z,99096
2014-07-29T03:51:58.001Z,99084
2014-07-29T03:52:16.222Z,99081
2014-07-29T03:52:34.472Z,99093
2014-07-29T03:52:52.894Z,99093
2014-07-29T03:53:11.099Z,99093
2014-07-29T03:53:29.333Z,99087
2014-07-29T03:53:47.552Z,99084
2014-07-29T03:54:05.802Z,99099
2014-07-29T03:54:24.023Z,99093
2014-07-29T03:54:42.226Z,99093
2014-07-29T03:55:00.460Z,99099
2014-07-29T03:55:18.695Z,99087
2014-07-29T03:55:36.899Z,99093
2014-07-29T03:55:55.117Z,99099
2014-07-29T03:56:13.336Z,99087
2014-07-29T03:56:31.588Z,99104
2014-07-29T03:56:49.791Z,99096
2014-07-29T03:57:08.010Z,99087
2014-07-29T03:57:26.231Z,99090
2014-07-29T03:57:44.496Z,99090
2014-07-29T03:58:02.684Z,99093
2014-07-29T03:58:20.934Z,99096
2014-07-29T03:58:39.171Z,99090
2014-07-29T03:58:57.406Z,99093
2014-07-29T03:59:15.624Z,99096
2014-07-29T03:59:33.875Z,99090